KBGF

Winchester Municipal Airport

Winchester, Tennessee, USA
METAR KBGF 192255Z AUTO 00000KT 10SM CLR 29/21 A2995 RMK A01
Observed Flight Rules
Aug-19 @ 22:55 UTC (14 minutes ago) Visual Flight Rules
Visibility Clouds
10 miles
  • Clear skies
Temperatures Readings
Current 29°C / 84°F
Dewpoint 21°C / 70°F
Humidity 62%
Altimeter 29.95" Hg
Pressure 1014 hPa
Elevation 299
METAR KBGF 192255Z AUTO 00000KT 10SM CLR 29/21 A2995 RMK A01
Observed Flight Rules
Aug-19 @ 22:55 UTC
(14 minutes ago)
VFR
Clouds
  • Clear skies
Temperature Dewpoint
29°C / 84°F 21°C / 70°F
Humidity Altimeter Pressure
62% 29.95" Hg 1014 hPa